createdAt,value
2022-12-22T00:02:57.769Z,6.60
2022-12-22T00:08:18.325Z,5.30
2022-12-22T00:13:38.852Z,6.67
2022-12-22T00:18:59.492Z,5.80
2022-12-22T00:24:19.994Z,6.10
2022-12-22T00:29:40.584Z,5.43
2022-12-22T00:35:01.554Z,4.17
2022-12-22T00:40:35.587Z,4.87
2022-12-22T00:45:56.706Z,4.87
2022-12-22T00:51:17.167Z,4.60
2022-12-22T00:56:37.675Z,5.07
2022-12-22T01:01:58.099Z,4.90
2022-12-22T01:07:18.786Z,4.87
2022-12-22T01:12:42.326Z,3.93
2022-12-22T01:18:02.645Z,4.00
2022-12-22T01:23:29.217Z,4.00
2022-12-22T01:28:49.505Z,4.47
2022-12-22T01:34:10.160Z,5.10
2022-12-22T01:39:30.645Z,5.17
2022-12-22T01:44:51.126Z,5.00
2022-12-22T01:50:11.669Z,4.33
2022-12-22T01:55:35.692Z,4.13
2022-12-22T02:00:56.256Z,4.40
2022-12-22T02:06:30.941Z,4.70
2022-12-22T02:12:34.752Z,5.30
2022-12-22T02:18:20.397Z,5.03
2022-12-22T02:23:59.573Z,5.43
2022-12-22T02:29:21.804Z,5.60
2022-12-22T02:34:42.259Z,5.20
2022-12-22T02:40:41.427Z,5.93
2022-12-22T02:46:17.129Z,5.10
2022-12-22T02:51:43.018Z,6.17
2022-12-22T02:57:05.355Z,5.50
2022-12-22T03:02:26.097Z,6.10
2022-12-22T03:07:46.446Z,5.77
2022-12-22T03:13:07.044Z,5.90
2022-12-22T03:18:29.443Z,6.47
2022-12-22T03:23:49.807Z,6.47
2022-12-22T03:28:51.609Z,6.87
2022-12-22T03:33:53.517Z,6.90
2022-12-22T03:38:55.309Z,6.13
2022-12-22T03:44:16.062Z,6.67
2022-12-22T03:49:19.378Z,6.17
2022-12-22T03:54:26.007Z,6.80
2022-12-22T03:59:27.975Z,6.60
2022-12-22T04:04:29.953Z,6.57
2022-12-22T04:09:31.723Z,7.10
2022-12-22T04:14:34.969Z,6.10
2022-12-22T04:19:37.059Z,6.73
2022-12-22T04:24:38.970Z,5.90
2022-12-22T04:29:40.707Z,5.03
2022-12-22T04:34:42.445Z,5.30
2022-12-22T04:39:44.342Z,5.43
2022-12-22T04:44:46.278Z,4.87
2022-12-22T04:49:48.231Z,6.80
2022-12-22T04:54:50.219Z,8.67
2022-12-22T04:59:51.962Z,9.87
2022-12-22T05:04:53.899Z,9.73
2022-12-22T05:09:55.649Z,8.57
2022-12-22T05:14:57.551Z,9.33
2022-12-22T05:19:59.493Z,8.63
2022-12-22T05:25:01.340Z,9.10
2022-12-22T05:30:04.619Z,8.83
2022-12-22T05:35:07.867Z,9.17
2022-12-22T05:40:11.245Z,9.43
2022-12-22T05:45:20.710Z,10.33
2022-12-22T05:50:24.971Z,10.93
2022-12-22T05:55:34.772Z,11.60
2022-12-22T06:00:36.566Z,13.27
2022-12-22T06:05:38.390Z,13.07
2022-12-22T06:10:40.388Z,14.30
2022-12-22T06:15:42.218Z,14.30
2022-12-22T06:20:46.410Z,15.47
2022-12-22T06:25:55.842Z,15.60
2022-12-22T06:30:58.060Z,17.47
2022-12-22T06:36:05.148Z,16.33
2022-12-22T06:41:08.497Z,16.30
2022-12-22T06:46:10.297Z,16.60
2022-12-22T06:51:12.243Z,19.07
2022-12-22T06:56:14.153Z,20.00
2022-12-22T07:01:15.986Z,16.83
2022-12-22T07:06:20.833Z,17.77
2022-12-22T07:11:22.656Z,16.07
2022-12-22T07:16:24.522Z,19.97
2022-12-22T07:21:26.354Z,18.50
2022-12-22T07:26:28.412Z,17.50
2022-12-22T07:31:30.719Z,20.07
2022-12-22T07:36:32.740Z,17.93
2022-12-22T07:41:53.074Z,19.27
2022-12-22T07:46:54.995Z,19.03
2022-12-22T07:51:58.396Z,20.40
2022-12-22T07:57:00.372Z,18.03
2022-12-22T08:02:02.387Z,19.13
2022-12-22T08:07:04.273Z,17.57
2022-12-22T08:12:06.390Z,16.33
2022-12-22T08:17:08.194Z,16.50
2022-12-22T08:22:10.193Z,17.40
2022-12-22T08:27:22.250Z,18.77
2022-12-22T08:32:27.847Z,21.00
2022-12-22T08:37:33.675Z,18.70
2022-12-22T08:42:35.689Z,18.67
2022-12-22T08:47:37.668Z,18.30
2022-12-22T08:52:39.829Z,17.23
2022-12-22T08:57:42.103Z,18.80
2022-12-22T09:02:44.044Z,19.73
2022-12-22T09:07:49.039Z,18.47
2022-12-22T09:12:51.305Z,15.87
2022-12-22T09:17:53.676Z,17.73
2022-12-22T09:22:55.421Z,18.47
2022-12-22T09:27:57.367Z,15.47
2022-12-22T09:32:59.347Z,15.63
2022-12-22T09:38:01.119Z,16.13
2022-12-22T09:43:04.558Z,13.17
2022-12-22T09:48:11.035Z,12.70
2022-12-22T09:53:21.532Z,12.53
2022-12-22T09:58:28.694Z,13.07
2022-12-22T10:04:00.119Z,13.43
2022-12-22T10:09:44.060Z,14.97
2022-12-22T10:14:39.646Z,14.30
2022-12-22T10:19:41.955Z,14.87
2022-12-22T10:24:43.737Z,14.47
2022-12-22T10:29:45.537Z,16.63
2022-12-22T10:35:13.720Z,16.77
2022-12-22T10:40:18.632Z,18.83
2022-12-22T10:45:24.206Z,15.07
2022-12-22T10:50:26.044Z,16.20
2022-12-22T10:55:29.560Z,14.80
2022-12-22T11:00:32.088Z,12.83
2022-12-22T11:05:34.067Z,11.93
2022-12-22T11:10:48.855Z,12.90
2022-12-22T11:16:03.307Z,11.27
2022-12-22T11:21:22.039Z,9.47
2022-12-22T11:27:00.102Z,10.57
2022-12-22T11:32:30.449Z,10.00
2022-12-22T11:37:53.936Z,9.23
2022-12-22T11:43:23.712Z,9.17
2022-12-22T11:48:37.981Z,7.40
2022-12-22T11:54:14.416Z,6.70
2022-12-22T11:59:28.794Z,6.60
2022-12-22T12:05:01.167Z,5.37
2022-12-22T12:10:31.810Z,7.13
2022-12-22T12:16:00.253Z,6.50
2022-12-22T12:21:27.804Z,5.20
2022-12-22T12:27:02.034Z,4.67
2022-12-22T12:32:21.577Z,4.27
2022-12-22T12:37:30.781Z,3.70
2022-12-22T12:42:39.536Z,3.43
2022-12-22T12:47:41.390Z,3.30
2022-12-22T12:52:48.460Z,3.03
2022-12-22T12:57:50.877Z,2.53
2022-12-22T13:02:57.653Z,2.20
2022-12-22T13:08:15.472Z,2.50
2022-12-22T13:13:23.734Z,2.10
2022-12-22T13:18:25.530Z,1.80
2022-12-22T13:23:30.585Z,2.50
2022-12-22T13:28:32.620Z,1.93
2022-12-22T13:33:39.013Z,1.90
2022-12-22T13:38:40.799Z,2.00
2022-12-22T13:43:46.529Z,2.10
2022-12-22T13:48:54.016Z,2.60
2022-12-22T13:54:10.573Z,2.90
2022-12-22T13:59:39.260Z,3.30
2022-12-22T14:04:44.137Z,3.20
2022-12-22T14:09:48.875Z,4.20
2022-12-22T14:14:53.917Z,3.37
2022-12-22T14:20:00.941Z,3.60
2022-12-22T14:25:17.309Z,4.20
2022-12-22T14:30:22.229Z,3.90
2022-12-22T14:35:29.476Z,3.93
2022-12-22T14:40:56.458Z,4.30
2022-12-22T14:46:08.727Z,4.53
2022-12-22T14:51:10.786Z,5.60
2022-12-22T14:56:14.217Z,5.23
2022-12-22T15:01:28.296Z,5.63
2022-12-22T15:06:40.488Z,5.33
2022-12-22T15:11:46.284Z,4.40
2022-12-22T15:16:48.735Z,4.33
2022-12-22T15:21:51.966Z,5.50
2022-12-22T15:26:53.847Z,4.63
2022-12-22T15:31:55.608Z,4.80
2022-12-22T15:36:57.573Z,5.37
2022-12-22T15:41:59.538Z,6.07
2022-12-22T15:47:01.601Z,5.70
2022-12-22T15:52:05.445Z,5.23
2022-12-22T15:57:12.107Z,6.27
2022-12-22T16:02:14.646Z,7.13
2022-12-22T16:07:16.692Z,7.20
2022-12-22T16:12:19.644Z,7.23
2022-12-22T16:17:24.107Z,8.03
2022-12-22T16:22:36.608Z,7.30
2022-12-22T16:27:38.654Z,10.13
2022-12-22T16:32:40.474Z,6.87
2022-12-22T16:37:42.435Z,6.17
2022-12-22T16:48:30.858Z,6.73
2022-12-22T16:53:32.866Z,9.07
2022-12-22T16:58:34.621Z,7.57
2022-12-22T17:03:38.408Z,10.10
2022-12-22T17:08:44.097Z,8.37
2022-12-22T17:13:46.366Z,7.97
2022-12-22T17:18:48.944Z,7.40
2022-12-22T17:23:53.504Z,7.50
2022-12-22T17:28:55.280Z,7.10
2022-12-22T17:33:57.257Z,8.53
2022-12-22T17:39:00.203Z,24.17
2022-12-22T17:44:02.019Z,7.43
2022-12-22T17:49:05.083Z,5.33
2022-12-22T17:54:21.361Z,6.30
2022-12-22T17:59:23.335Z,5.83
2022-12-22T18:04:25.115Z,6.53
2022-12-22T18:09:26.967Z,4.73
2022-12-22T18:14:28.989Z,4.20
2022-12-22T18:19:31.412Z,4.30
2022-12-22T18:24:33.586Z,5.30
2022-12-22T18:29:35.357Z,6.00
2022-12-22T18:34:38.170Z,4.77
2022-12-22T18:39:40.727Z,4.70
2022-12-22T18:44:42.680Z,5.20
2022-12-22T18:49:44.902Z,6.27
2022-12-22T18:54:47.845Z,5.10
2022-12-22T18:59:49.795Z,5.00
2022-12-22T19:04:52.394Z,4.33
2022-12-22T19:09:54.202Z,3.83
2022-12-22T19:15:03.491Z,3.87
2022-12-22T19:20:06.174Z,3.70
2022-12-22T19:25:13.239Z,4.77
2022-12-22T19:30:18.233Z,4.60
2022-12-22T19:35:22.808Z,4.27
2022-12-22T19:40:28.881Z,3.70
2022-12-22T19:45:36.796Z,4.10
2022-12-22T19:50:38.825Z,4.33
2022-12-22T19:55:52.732Z,4.30
2022-12-22T20:00:55.044Z,4.20
2022-12-22T20:05:56.985Z,3.70
2022-12-22T20:11:00.105Z,3.77
2022-12-22T20:16:01.924Z,4.90
2022-12-22T20:21:07.254Z,4.27
2022-12-22T20:26:16.145Z,3.90
2022-12-22T20:31:20.996Z,3.80
2022-12-22T20:36:29.463Z,5.03
2022-12-22T20:41:31.484Z,5.30
2022-12-22T20:46:33.396Z,4.33
2022-12-22T20:51:35.382Z,4.40
2022-12-22T20:56:38.712Z,4.77
2022-12-22T21:01:40.648Z,5.20
2022-12-22T21:06:49.172Z,5.67
2022-12-22T21:11:51.783Z,5.50
2022-12-22T21:16:53.688Z,5.70
2022-12-22T21:21:55.527Z,5.10
2022-12-22T21:26:57.586Z,4.60
2022-12-22T21:31:59.594Z,5.70
2022-12-22T21:37:03.025Z,5.10
2022-12-22T21:42:05.490Z,5.10
2022-12-22T21:47:13.002Z,5.00
2022-12-22T21:52:14.915Z,5.53
2022-12-22T21:57:16.928Z,5.80
2022-12-22T22:02:19.063Z,5.60
2022-12-22T22:07:20.996Z,6.00
2022-12-22T22:12:36.850Z,5.30
2022-12-22T22:17:39.494Z,5.23
2022-12-22T22:22:41.913Z,6.60
2022-12-22T22:27:47.682Z,6.80
2022-12-22T22:32:49.808Z,6.80
2022-12-22T22:37:51.998Z,8.13
2022-12-22T22:42:54.127Z,6.63
2022-12-22T22:47:56.204Z,6.87
2022-12-22T22:52:58.503Z,7.70
2022-12-22T22:58:00.309Z,9.33
2022-12-22T23:03:02.223Z,7.83
2022-12-22T23:08:04.288Z,8.07
2022-12-22T23:13:06.369Z,8.80
2022-12-22T23:18:08.452Z,8.83
2022-12-22T23:23:10.374Z,10.90
2022-12-22T23:28:12.688Z,9.70
2022-12-22T23:33:15.260Z,10.73
2022-12-22T23:38:20.237Z,9.03
2022-12-22T23:43:22.269Z,9.40
2022-12-22T23:48:24.098Z,9.13
2022-12-22T23:53:25.881Z,8.10
2022-12-22T23:58:28.008Z,8.27
